Ahsahka, Idaho
Current Conditions -  °F | °C
As of 12:56 PM on Thursday 23 Oct 2014 (Local Time) from KLWS Reporting Station
Light Rain Light Rain  
Wind Chill: 63°   Ceiling: 7500
Heat Index: 63°   Visibility: 10mi
Dew Point: 47°   Wind: 8mph
Humidity: 56%   Direction: 290°WNW
Pressure: 29.8"   Gusts: 25mph
Location:  46.51°N, 116.35°W
Report Text: KLWS 231956Z 29007G22KT 10SM -RA SCT065 BKN075 OVC095 17/08 A2980 RMK AO2 RAB28 SLP086 P0000 T01720083
Loading
Personal Weather Stations






























Interactive Weather Map
Tropical Storm Tracking
New forecast layout! Learn more

10-Day Weather Forecast

Advertisements
Track Severe Weather on mobile